Home > Products > Valid Products > TAF

000
FTUS46 KPDT 201900 AAA
TAFRDM
TAF AMD
KRDM 201902Z 2019/2118 30012G18KT P6SM VCSH SCT035 BKN050
     FM202100 29011G18KT P6SM -SHRA BKN050 BKN100
     FM210300 16007KT P6SM SCT100
     FM210900 17007KT P6SM SCT040 BKN070=



000
FTUS46 KPDT 201900 AAA
TAFDLS
TAF AMD
KDLS 201900Z 2019/2118 30008KT P6SM VCSH SCT050 OVC070
     FM202000 30010G20KT P6SM VCSH BKN060 OVC080
     FM210200 VRB05KT P6SM SCT050
     FM211200 30005KT P6SM BKN050 OVC090=



000
FTUS46 KPDT 201700
TAFPDT
TAF
KPDT 201729Z 2018/2118 26008KT P6SM SCT200
     FM202000 29010G18KT P6SM SCT100 BKN200
     FM210200 21008KT P6SM VCSH BKN060 OVC080
     FM210800 22007KT P6SM -SHRA SCT030 BKN050
     FM211300 23010KT P6SM SCT050 BKN150=



000
FTUS46 KPDT 201700
TAFDLS
TAF
KDLS 201729Z 2018/2118 30008KT 5SM -SHRA BR BKN040 OVC050
     FM202000 30010G20KT P6SM VCSH BKN060 OVC080
     FM210200 VRB05KT P6SM SCT050
     FM211200 30005KT P6SM BKN050 OVC090=



000
FTUS46 KPDT 201700
TAFALW
TAF
KALW 201729Z 2018/2118 24006KT P6SM SCT180 BKN250
     FM210000 26011G19KT P6SM SCT080 BKN120
     FM210400 17008KT P6SM -SHRA BKN060 OVC080
     FM211100 18006KT 6SM -SHRA BR SCT020 BKN050
     FM211600 21009KT P6SM BKN050=



000
FTUS46 KPDT 201700
TAFPSC
TAF
KPSC 201729Z 2018/2118 20008KT P6SM BKN100
     FM202200 29012G22KT P6SM VCSH BKN050 OVC090
     FM210300 23009G15KT P6SM VCSH BKN060 OVC100
     FM210600 23009KT P6SM SCT060 BKN100
     FM211300 24009KT P6SM SKC=



000
FTUS46 KPDT 201700
TAFRDM
TAF
KRDM 201729Z 2018/2118 21009KT P6SM VCSH SCT035 BKN050
     FM202100 29011G18KT P6SM -SHRA BKN050 BKN100
     FM210300 16007KT P6SM SCT100
     FM210900 17007KT P6SM SCT040 BKN070=



000
FTUS46 KPDT 201700
TAFYKM
TAF
KYKM 201729Z 2018/2118 16006KT P6SM -SHRA BKN050 BKN100
     FM202300 23006KT P6SM VCSH BKN050 BKN100
     FM210300 27006KT P6SM BKN060 OVC100
     FM210700 27006KT P6SM SCT070=



000
FTUS46 KPDT 201400 AAB
TAFPDT
TAF AMD
KPDT 201420Z 2014/2112 13005KT P6SM SCT200
     FM201800 25008KT P6SM SCT180 BKN250
     FM202100 29013G20KT P6SM SCT110 BKN130
     FM202300 28010G18KT P6SM SCT070 BKN100
     FM210300 22007KT P6SM VCSH BKN060 OVC080
      TEMPO 2106/2110 -RA BKN050 OVC080=



000
FTUS46 KPDT 201400 AAA
TAFALW
TAF AMD
KALW 201409Z 2014/2112 12005KT 6SM BR FEW200
      TEMPO 2014/2016 5SM BR
     FM201800 22005KT P6SM SCT180 BKN250
     FM202200 25007KT P6SM SCT120 BKN140 BKN250
     FM210000 26010G18KT P6SM SCT080 BKN120
     FM210400 17008KT P6SM VCSH BKN060 OVC080
      TEMPO 2107/2111 -RA BKN050 BKN100=



000
FTUS46 KPDT 201300 AAA
TAFPDT
TAF AMD
KPDT 201327Z 2013/2112 12005KT P6SM SCT200
      TEMPO 2013/2015 5SM BR
     FM201800 20012KT P6SM BKN100
     FM202200 30015G25KT P6SM BKN050 BKN100
      TEMPO 2022/2102 -RA BKN050 BKN100=



000
FTUS46 KPDT 201100 RRA
TAFYKM
TAF
KYKM 201141Z 2012/2112 30008KT P6SM SCT100 SCT250
     FM201500 20012KT P6SM BKN100
     FM201900 30015G25KT P6SM VCSH BKN050 BKN100
      TEMPO 2019/2023 -RA BKN050 BKN100
     FM202300 30012KT P6SM VCSH BKN050 BKN100=



000
FTUS46 KPDT 201100 RRA
TAFALW
TAF
KALW 201141Z 2012/2112 VRB03KT P6SM FEW200
      TEMPO 2012/2015 6SM BR HZ SCT001
     FM201800 20012KT P6SM BKN100
     FM202200 30015G25KT P6SM VCSH BKN050 BKN100
      TEMPO 2022/2102 -RA BKN050 BKN100=



000
FTUS46 KPDT 201100 RRA
TAFDLS
TAF
KDLS 201141Z 2012/2112 11006KT P6SM SCT060 BKN090
      TEMPO 2013/2014 -RA BKN060 BKN100
     FM201400 30010KT P6SM -RA BKN050 OVC080
     FM202000 30015G25KT P6SM VCSH BKN050 BKN100=



000
FTUS46 KPDT 201100 RRA
TAFPDT
TAF
KPDT 201141Z 2012/2112 15007KT P6SM FEW200
     FM201800 20012KT P6SM BKN100
     FM202200 30015G25KT P6SM BKN050 BKN100
      TEMPO 2022/2102 -RA BKN050 BKN100=



000
FTUS46 KPDT 201100 RRA
TAFRDM
TAF
KRDM 201141Z 2012/2112 14006KT P6SM SCT100
     FM201600 20006KT P6SM SCT060 BKN100
      TEMPO 2016/2018 -RA BKN060 BKN080
     FM201800 30008KT P6SM -RA BKN050
     FM202100 32015G25KT P6SM VCSH BKN050 BKN100
      TEMPO 2022/2102 -RA SCT050 BKN100=



000
FTUS46 KPDT 201100 RRA
TAFPSC
TAF
KPSC 201141Z 2012/2112 20007KT P6SM SCT250
      TEMPO 2017/2019 4SM BR
     FM201900 20012KT P6SM BKN100
     FM202100 30015G25KT P6SM VCSH BKN050 BKN100
      TEMPO 2022/2102 -RA BKN050 BKN100=



000
FTUS46 KPDT 201100 AAA
TAFALW
TAF AMD
KALW 201115Z 2011/2106 VRB03KT P6SM SKC
      TEMPO 2011/2015 6SM BR HZ SCT001
     FM201800 20012KT P6SM BKN100
     FM202200 30015G25KT P6SM VCSH BKN050 BKN100
      TEMPO 2022/2102 -RA BKN050 BKN100=



000
FTUS46 KPDT 200500
TAFALW
TAF
KALW 200533Z 2006/2106 VRB06KT P6SM SKC
     FM200800 15007KT P6SM SCT250
      TEMPO 2010/2014 3SM BR BKN001
     FM201800 20012KT P6SM BKN100
     FM202200 30015G25KT P6SM VCSH BKN050 BKN100
      TEMPO 2022/2102 -RA BKN050 BKN100=



000
FTUS46 KPDT 200500
TAFPDT
TAF
KPDT 200533Z 2006/2106 VRB06KT P6SM SKC
     FM200800 15007KT P6SM SCT250
     FM201800 20012KT P6SM BKN100
     FM202200 30015G25KT P6SM VCSH BKN050 BKN100
      TEMPO 2022/2102 -RA BKN050 BKN100=



000
FTUS46 KPDT 200500
TAFYKM
TAF
KYKM 200533Z 2006/2106 28008KT P6SM SCT250
     FM200800 30008KT P6SM SCT100 SCT250
      TEMPO 2010/2014 4SM BR
     FM201500 20012KT P6SM BKN100
     FM201900 30015G25KT P6SM VCSH BKN050 BKN100
      TEMPO 2019/2023 -RA BKN050 BKN100
     FM202300 30012KT P6SM VCSH BKN050 BKN100=



000
FTUS46 KPDT 200500
TAFPSC
TAF
KPSC 200533Z 2006/2106 VRB06KT P6SM SKC
     FM200800 20007KT P6SM SCT250
      TEMPO 2010/2014 4SM BR
     FM201800 20012KT P6SM BKN100
     FM202100 30015G25KT P6SM VCSH BKN050 BKN100
      TEMPO 2022/2102 -RA BKN050 BKN100=



000
FTUS46 KPDT 200500
TAFRDM
TAF
KRDM 200533Z 2006/2106 20008KT P6SM SCT100
     FM200800 20010KT P6SM SCT050 BKN100
      TEMPO 2012/2016 -RA BKN050 BKN100
     FM201600 30008KT P6SM -RA BKN050
     FM202200 32015G25KT P6SM VCSH BKN050 BKN100
      TEMPO 2022/2102 -RA SCT050 BKN100=



000
FTUS46 KPDT 200500
TAFDLS
TAF
KDLS 200533Z 2006/2106 VRB06KT P6SM BKN100
     FM200800 VRB06KT P6SM SCT050 BKN100
      TEMPO 2010/2014 -RA BKN050 BKN100
     FM201400 30010KT P6SM -RA BKN050
     FM202000 30015G25KT P6SM VCSH BKN050 BKN100=



000
FTUS46 KPDT 192300
TAFRDM
TAF
KRDM 192321Z 2000/2024 21011G18KT P6SM FEW250
     FM200300 16007KT P6SM FEW060 SCT250
     FM201100 16004KT 6SM BR SCT005 BKN050
     FM201500 16004KT 5SM -RA BR SCT015 OVC025
     FM201900 32008KT P6SM -SHRA SCT030 BKN060=



000
FTUS46 KPDT 192300
TAFPDT
TAF
KPDT 192321Z 2000/2024 33011KT P6SM SCT250
     FM200300 13007KT P6SM SKC
     FM201400 17006KT P6SM FEW050 SCT200
     FM201900 29009G15KT P6SM SCT035 BKN050=



000
FTUS46 KPDT 192300
TAFPSC
TAF
KPSC 192321Z 2000/2024 34005KT P6SM FEW250
     FM200500 VRB04KT P6SM SKC
     FM201100 VRB04KT 6SM BR FEW010 SCT200
     FM201500 19004KT P6SM SCT050 SCT200
     FM201900 22006KT P6SM SCT040 BKN060=



000
FTUS46 KPDT 192300
TAFALW
TAF
KALW 192321Z 2000/2024 26005KT P6SM FEW250
     FM200300 16006KT P6SM SKC
     FM201100 16006KT 3SM BR SCT005 BKN010 BKN150
     FM201600 18005KT P6SM FEW050 SCT200
     FM201900 26008KT P6SM SCT040 BKN200=



000
FTUS46 KPDT 192300
TAFDLS
TAF
KDLS 192321Z 2000/2024 30006KT P6SM SCT080 SCT250
     FM201000 VRB04KT 6SM -SHRA SCT025 BKN050
     FM201400 31005KT 5SM -RA BR SCT010 OVC020
     FM201900 31008KT P6SM -SHRA BKN050=



000
FTUS46 KPDT 192300
TAFYKM
TAF
KYKM 192321Z 2000/2024 VRB05KT P6SM FEW080
     FM200300 27008KT P6SM SCT060 BKN090 BKN250
     FM201200 27005KT P6SM -SHRA SCT030 BKN050
     FM201800 VRB05KT P6SM VCSH SCT040 BKN080=



000
FTUS46 KPDT 192300
TAFYKM
TAF
KYKM 192321Z 2000/2024 VRB05KT P6SM FEW080
     FM200300 27008KT P6SM SCT060 BKN090 BKN250
     FM201200 27005KT P6SM -SHRA SCT030 BKN050
     FM201800 VRB05KT P6SM VCSH SCT040 BKN080=



000
FTUS46 KPDT 192300
TAFPSC
TAF
KPSC 192321Z 2000/2024 34005KT P6SM FEW250
     FM200500 VRB04KT P6SM SKC
     FM201100 VRB04KT 6SM BR FEW010 SCT200
     FM201500 19004KT P6SM SCT050 SCT200
     FM201900 22006KT P6SM SCT040 BKN060=



000
FTUS46 KPDT 192300
TAFRDM
TAF
KRDM 192321Z 2000/2024 21011G18KT P6SM FEW250
     FM200300 16007KT P6SM FEW060 SCT250
     FM201100 16004KT 6SM BR SCT005 BKN050
     FM201500 16004KT 5SM -RA BR SCT015 OVC025
     FM201900 32008KT P6SM -SHRA SCT030 BKN060=



000
FTUS46 KPDT 192300
TAFPDT
TAF
KPDT 192321Z 2000/2024 33011KT P6SM SCT250
     FM200300 13007KT P6SM SKC
     FM201400 17006KT P6SM FEW050 SCT200
     FM201900 29009G15KT P6SM SCT035 BKN050=



000
FTUS46 KPDT 192300
TAFDLS
TAF
KDLS 192321Z 2000/2024 30006KT P6SM SCT080 SCT250
     FM201000 VRB04KT 6SM -SHRA SCT025 BKN050
     FM201400 31005KT 5SM -RA BR SCT010 OVC020
     FM201900 31008KT P6SM -SHRA BKN050=



000
FTUS46 KPDT 192300
TAFALW
TAF
KALW 192321Z 2000/2024 26005KT P6SM FEW250
     FM200300 16006KT P6SM SKC
     FM201100 16006KT 3SM BR SCT005 BKN010 BKN150
     FM201600 18005KT P6SM FEW050 SCT200
     FM201900 26008KT P6SM SCT040 BKN200=



000
FTUS46 KPDT 192100 AAA
TAFRDM
TAF AMD
KRDM 192116Z 1921/2018 21013G19KT P6SM FEW250
     FM200300 16007KT P6SM FEW060 SCT200
     FM201100 16004KT 6SM BR SCT007 SCT060 BKN200
     FM201600 16004KT P6SM SCT030 OVC040=



000
FTUS46 KPDT 192000 AAB
TAFALW
TAF AMD
KALW 192020Z 1920/2018 23005KT P6SM SCT003 SCT250
     FM200300 14005KT P6SM FEW250
     FM201400 16005KT P6SM FEW150 BKN200=



000
FTUS46 KPDT 191900 AAB
TAFDLS
TAF AMD
KDLS 191931Z 1920/2018 VRB04KT P6SM SCT007
     FM192100 32005KT P6SM SCT080 SCT250
     FM200900 VRB04KT 6SM -SHRA SCT025 BKN050
     FM201500 VRB03KT 6SM -RA SCT010 OVC020=



000
FTUS46 KPDT 191900 AAA
TAFDLS
TAF AMD
KDLS 191901Z 1919/2018 VRB04KT P6SM BKN007
     FM192100 32005KT P6SM SCT080 SCT250
     FM200900 VRB04KT 6SM -SHRA SCT025 BKN050
     FM201500 VRB03KT 6SM -RA SCT010 OVC020=



000
FTUS46 KPDT 191800 AAA
TAFALW
TAF AMD
KALW 191835Z 1919/2018 23005KT 3SM BR SCT003 SCT250
     FM200300 14005KT P6SM FEW250
     FM201400 16005KT P6SM FEW150 BKN200=



000
FTUS46 KPDT 191700
TAFPSC
TAF
KPSC 191727Z 1918/2018 34005KT P6SM SCT250
     FM200500 VRB04KT P6SM SKC
     FM201500 19004KT P6SM FEW050 BKN200=



000
FTUS46 KPDT 191700
TAFALW
TAF
KALW 191727Z 1918/2018 21005KT 3/4SM BR OVC003
      TEMPO 1918/1919 1/4SM FG VV002
     FM191900 18005KT 3SM BR SCT003 BKN007
      TEMPO 1919/1920 1SM BR BKN003
     FM192000 25005KT P6SM FEW250
     FM200300 14005KT P6SM FEW250
     FM201400 16005KT P6SM FEW150 BKN200=



000
FTUS46 KPDT 191700
TAFDLS
TAF
KDLS 191727Z 1918/2018 VRB03KT 3SM BR BKN005 BKN250
     FM191900 VRB04KT 6SM BR SCT007 SCT250
     FM192000 32005KT P6SM SCT080 SCT250
     FM200900 VRB04KT 6SM -SHRA SCT025 BKN050
     FM201500 VRB03KT 6SM -RA SCT010 OVC020=



000
FTUS46 KPDT 191700
TAFRDM
TAF
KRDM 191727Z 1918/2018 19008KT P6SM FEW250
     FM192100 22010KT P6SM FEW070 FEW250
     FM200300 16007KT P6SM FEW060 SCT200
     FM201100 16004KT 6SM BR SCT007 SCT060 BKN200
     FM201600 16004KT P6SM SCT030 OVC040=



000
FTUS46 KPDT 191700
TAFYKM
TAF
KYKM 191727Z 1918/2018 16006KT P6SM SCT250
     FM200300 28008KT P6SM SCT070 BKN100
     FM201200 27007KT P6SM SCT045 OVC060=



000
FTUS46 KPDT 191700
TAFPDT
TAF
KPDT 191727Z 1918/2018 34007KT P6SM BKN250
     FM200300 13005KT P6SM FEW250
     FM201200 17006KT P6SM SCT120 BKN150=



000
FTUS46 KPDT 191600 AAB
TAFDLS
TAF AMD
KDLS 191605Z 1916/2012 00000KT 1SM BR OVC004
      TEMPO 1916/1918 1/2SM FG OVC002
     FM191800 VRB03KT 5SM BR SCT007 BKN250
      TEMPO 1918/1919 2SM BR OVC004
     FM192000 VRB05KT P6SM SCT070 SCT250
     FM200000 31006KT P6SM BKN070=



000
FTUS46 KPDT 191500 AAB
TAFYKM
TAF AMD
KYKM 191523Z 1915/2012 26005KT P6SM BKN250
     FM192100 16006KT P6SM FEW080 SCT250
     FM200300 29005KT P6SM BKN070=



000
FTUS46 KPDT 191500 AAB
TAFALW
TAF AMD
KALW 191503Z 1915/2012 17005KT 1SM BR OVC001
      TEMPO 1915/1917 1/4SM FG VV001
     FM191700 18005KT 3SM BR SCT001
      TEMPO 1917/1919 1SM BR OVC001
     FM191900 25005KT P6SM FEW250
     FM192200 23007KT P6SM FEW090 FEW250
     FM200300 11005KT P6SM FEW090=



000
FTUS46 KPDT 191400 AAA
TAFYKM
TAF AMD
KYKM 191410Z 1914/2012 26005KT P6SM SCT070 BKN250
      TEMPO 1914/1916 5SM BR FEW010 SCT070 BKN250
     FM191600 VRB04KT P6SM FEW070 BKN250
     FM192100 16006KT P6SM FEW080 SCT250
     FM200300 29005KT P6SM BKN070=



000
FTUS46 KPDT 191400 AAA
TAFPDT
TAF AMD
KPDT 191403Z 1914/2012 32006KT P6SM SCT250
     FM191500 33006KT P6SM BKN250
     FM191800 34007KT P6SM BKN250
     FM192000 36007KT P6SM FEW080 SCT250
     FM200300 15005KT P6SM SCT090=



000
FTUS46 KPDT 191300 AAA
TAFDLS
TAF AMD
KDLS 191345Z 1914/2012 00000KT 1SM BR OVC003
      TEMPO 1914/1916 1/2SM FG OVC002
     FM191600 VRB02KT 6SM BR SCT007 BKN250
      TEMPO 1916/1917 2SM BR OVC004
     FM191800 VRB03KT P6SM FEW070 SCT250
     FM192100 VRB05KT P6SM SCT070 SCT250
     FM200000 31006KT P6SM BKN070=



000
FTUS46 KPDT 191300 AAA
TAFPSC
TAF AMD
KPSC 191333Z 1914/2012 31005KT 6SM BR SCT250
     FM191500 VRB04KT P6SM BKN250
     FM192000 VRB05KT P6SM FEW090 SCT250
     FM200500 33005KT P6SM FEW100 FEW200=



000
FTUS46 KPDT 191200 AAA
TAFALW
TAF AMD
KALW 191248Z 1913/2012 17005KT 1SM BR OVC001
      TEMPO 1913/1915 1/4SM FG VV001
     FM191500 18005KT 3SM BR SCT001
      TEMPO 1915/1917 1SM BR OVC001
     FM191800 25005KT P6SM FEW250
     FM192200 23007KT P6SM FEW090 FEW250
     FM200300 11005KT P6SM FEW090=



000
FTUS46 KPDT 191100
TAFALW
TAF
KALW 191140Z 1912/2012 18007KT P6SM SKC
      TEMPO 1912/1915 3SM BR
     FM191800 25005KT P6SM FEW250
     FM192200 23007KT P6SM FEW090 FEW250
     FM200300 11005KT P6SM FEW090=



000
FTUS46 KPDT 191100
TAFPSC
TAF
KPSC 191140Z 1912/2012 32005KT P6SM FEW250
     FM192000 VRB05KT P6SM FEW090
     FM200500 33005KT P6SM FEW100 FEW200=



000
FTUS46 KPDT 191100
TAFYKM
TAF
KYKM 191140Z 1912/2012 27007KT P6SM SCT070 BKN250
      TEMPO 1912/1915 5SM BR FEW010 SCT070 BKN250
     FM191600 14005KT P6SM FEW070 SCT250
     FM192100 16006KT P6SM SCT080
     FM200300 29005KT P6SM BKN070=



000
FTUS46 KPDT 191100
TAFPDT
TAF
KPDT 191140Z 1912/2012 VRB05KT P6SM FEW250
     FM191800 34007KT P6SM FEW250
     FM192200 VRB05KT P6SM FEW070 FEW250
     FM200300 15005KT P6SM SCT090=



000
FTUS46 KPDT 191100
TAFRDM
TAF
KRDM 191140Z 1912/2012 15005KT P6SM BKN250
     FM191800 19008KT P6SM FEW250
     FM192100 22008KT P6SM FEW060 FEW250
     FM200300 16005KT P6SM FEW100 FEW200
     FM200900 16005KT P6SM BKN070=



000
FTUS46 KPDT 191100
TAFDLS
TAF
KDLS 191140Z 1912/2012 00000KT 6SM BR OVC006
     FM191500 VRB02KT P6SM SCT007 SCT060
     FM191800 VRB04KT P6SM FEW070 SCT250
     FM192100 VRB05KT P6SM SCT070 SCT250
     FM200000 31006KT P6SM BKN070=



000
FTUS46 KPDT 191100 AAA
TAFDLS
TAF AMD
KDLS 191111Z 1911/2006 00000KT 6SM BR OVC006
     FM191500 VRB02KT P6SM SCT007 SCT060
     FM191700 VRB04KT P6SM FEW070 SCT200
     FM192100 VRB05KT P6SM SCT080 BKN250=



000
FTUS46 KPDT 190500
TAFPDT
TAF
KPDT 190520Z 1906/2006 VRB05KT P6SM FEW080
     FM191800 32007KT P6SM FEW250
     FM192200 VRB05KT P6SM SCT070 BKN250=



000
FTUS46 KPDT 190500
TAFYKM
TAF
KYKM 190520Z 1906/2006 27006KT P6SM SCT250
     FM191000 27006KT P6SM FEW010 SCT060 BKN250
     FM191600 14005KT P6SM FEW070 SCT250
     FM192100 16006KT P6SM SCT080 BKN250=



000
FTUS46 KPDT 190500
TAFRDM
TAF
KRDM 190520Z 1906/2006 23007KT P6SM SKC
     FM190900 15004KT P6SM SKC
     FM191800 19008KT P6SM FEW250
     FM192100 22008KT P6SM FEW060 SCT250=



000
FTUS46 KPDT 190500
TAFPSC
TAF
KPSC 190520Z 1906/2006 VRB05KT P6SM SKC
     FM191000 VRB05KT P6SM SKC
     FM192100 VRB05KT P6SM SCT080 BKN250=



000
FTUS46 KPDT 190500
TAFALW
TAF
KALW 190520Z 1906/2006 11005KT P6SM SKC
     FM191800 VRB05KT P6SM FEW250
     FM192200 23007KT P6SM SCT070 BKN250=



000
FTUS46 KPDT 190500
TAFDLS
TAF
KDLS 190520Z 1906/2006 VRB05KT P6SM FEW070
     FM191000 VRB04KT P6SM SCT010 SCT060
     FM191700 VRB04KT P6SM FEW070 SCT200
     FM192100 VRB05KT P6SM SCT080 BKN250=



000
FTUS46 KPDT 182300
TAFYKM
TAF
KYKM 182320Z 1900/1924 17008KT P6SM FEW070
     FM190300 28007KT P6SM SCT060 BKN250
     FM191000 27005KT P6SM FEW010 SCT050 BKN250
     FM191600 14005KT P6SM SCT200=



000
FTUS46 KPDT 182300
TAFDLS
TAF
KDLS 182320Z 1900/1924 VRB05KT P6SM FEW080
     FM190200 12004KT P6SM FEW070 SCT250
     FM190800 09004KT P6SM SCT010 SCT060 BKN250
     FM191700 VRB04KT P6SM FEW070 SCT200=



000
FTUS46 KPDT 182300
TAFRDM
TAF
KRDM 182320Z 1900/1924 VRB05KT P6SM FEW060
     FM190300 16006KT P6SM SCT070
     FM190900 15004KT P6SM BKN250
     FM191900 19008KT P6SM FEW200=



000
FTUS46 KPDT 182300
TAFPDT
TAF
KPDT 182320Z 1900/1924 34007KT P6SM SKC
     FM190300 12005KT P6SM SCT250
     FM191800 32007KT P6SM FEW250=



000
FTUS46 KPDT 182300
TAFPSC
TAF
KPSC 182320Z 1900/1924 VRB05KT P6SM SKC
     FM190600 VRB05KT P6SM SCT250
     FM192100 VRB05KT P6SM SKC=



000
FTUS46 KPDT 182300
TAFALW
TAF
KALW 182320Z 1900/1924 30005KT P6SM SKC
     FM190200 12005KT P6SM SCT250
     FM191900 31005KT P6SM FEW250=



000
FTUS46 KPDT 181900 AAB
TAFDLS
TAF AMD
KDLS 181905Z 1819/1918 VRB04KT P6SM FEW080
     FM182000 33005KT P6SM SCT050
     FM190400 VRB04KT P6SM SCT070 BKN250
     FM191200 VRB04KT P6SM SCT010 BKN250
     FM191600 VRB04KT P6SM BKN250=



000
FTUS46 KPDT 181800 AAA
TAFDLS
TAF AMD
KDLS 181805Z 1818/1918 VRB04KT P6SM SCT007 BKN070 OVC080
      TEMPO 1818/1820 BKN007
     FM182000 33005KT P6SM SCT050
     FM190400 VRB04KT P6SM SCT070 BKN250
     FM191200 VRB04KT P6SM SCT010 BKN250
     FM191600 VRB04KT P6SM BKN250=



000
FTUS46 KPDT 181700
TAFRDM
TAF
KRDM 181729Z 1818/1918 17008KT P6SM SKC
     FM182100 32005KT P6SM SKC
     FM190200 16007KT P6SM SCT080
     FM190600 15007KT P6SM BKN250=



000
FTUS46 KPDT 181700
TAFDLS
TAF
KDLS 181729Z 1818/1918 VRB04KT P6SM BKN010 BKN060 OVC080
     FM182000 33005KT P6SM SCT050
     FM190400 VRB04KT P6SM SCT070 BKN250
     FM191200 VRB04KT P6SM SCT010 BKN250
     FM191600 VRB04KT P6SM BKN250=



000
FTUS46 KPDT 181700
TAFPDT
TAF
KPDT 181729Z 1818/1918 VRB05KT P6SM BKN070
     FM182000 32005KT P6SM SCT080
     FM190300 11005KT P6SM FEW090 SCT250=



000
FTUS46 KPDT 181700
TAFYKM
TAF
KYKM 181729Z 1818/1918 15005KT P6SM FEW080
     FM182200 17005KT P6SM FEW100
     FM190300 28006KT P6SM BKN200
     FM191000 27006KT P6SM SCT050 BKN250=



000
FTUS46 KPDT 181700
TAFALW
TAF
KALW 181729Z 1818/1918 VRB05KT P6SM BKN060
     FM182100 VRB05KT P6SM FEW090
     FM190200 12005KT P6SM SCT250=



000
FTUS46 KPDT 181700
TAFPSC
TAF
KPSC 181729Z 1818/1918 VRB05KT P6SM SCT070 BKN090
     FM182100 VRB05KT P6SM FEW120
     FM190300 VRB03KT P6SM SCT250=



000
FTUS46 KPDT 181300 AAC
TAFDLS
TAF AMD
KDLS 181352Z 1814/1912 VRB03KT 6SM BR FEW001 OVC008
      TEMPO 1814/1816 10005KT 3SM BR SCT001 OVC008
     FM181600 VRB03KT P6SM BKN070 BKN080
     FM181800 VRB04KT P6SM SCT080 BKN090
     FM182100 32005KT P6SM SCT080
     FM190400 30006KT P6SM BKN060=



000
FTUS46 KPDT 181300 AAB
TAFDLS
TAF AMD
KDLS 181314Z 1813/1912 11005KT 5SM BR SCT001 BKN009 BKN070
      TEMPO 1813/1816 1/4SM FG BKN001 OVC009
     FM181600 VRB03KT 3SM BR FEW002 BKN070 BKN080
     FM181800 VRB04KT P6SM SCT080 BKN090
     FM182100 32005KT P6SM SCT080
     FM190400 30006KT P6SM BKN060=



000
FTUS46 KPDT 181300 AAA
TAFDLS
TAF AMD
KDLS 181300Z 1813/1912 00000KT 1SM BR BKN002 BKN009 BKN070
      TEMPO 1813/1816 1/4SM FG BKN001 BKN008
     FM181600 VRB03KT 3SM BR FEW002 BKN070 BKN080
     FM181800 VRB04KT P6SM SCT080 BKN090
     FM182200 VRB05KT P6SM SCT080
     FM190400 30006KT P6SM BKN060=



000
FTUS46 KPDT 181100
TAFPSC
TAF
KPSC 181139Z 1812/1912 VRB05KT P6SM SCT080 BKN100
     FM181800 VRB05KT P6SM SCT080 BKN110
     FM182100 VRB05KT P6SM SCT110
     FM190300 VRB03KT P6SM FEW100=



000
FTUS46 KPDT 181100
TAFDLS
TAF
KDLS 181139Z 1812/1912 30006KT P6SM BKN060 BKN080
     FM181800 30010KT P6SM SCT060 BKN100
     FM182200 VRB05KT P6SM SCT100 BKN200
     FM190400 30006KT P6SM BKN060=



000
FTUS46 KPDT 181100
TAFALW
TAF
KALW 181139Z 1812/1912 17005KT P6SM BKN070 OVC090
     FM181800 VRB05KT P6SM SCT070 BKN100
     FM182100 VRB05KT P6SM SCT100
     FM190300 09005KT P6SM FEW090=



000
FTUS46 KPDT 181100
TAFALW
TAF
KALW 181139Z 1812/1912 17005KT P6SM BKN070 OVC090
     FM181800 VRB05KT P6SM SCT070 BKN100
     FM182100 VRB05KT P6SM SCT100
     FM190300 09005KT P6SM FEW090=



000
FTUS46 KPDT 181100
TAFRDM
TAF
KRDM 181139Z 1812/1912 16005KT P6SM BKN060 OVC080
     FM181600 20005KT P6SM SCT070 BKN080
     FM182100 32005KT P6SM SCT080
     FM190300 VRB04KT P6SM SCT080
     FM190600 15005KT P6SM SKC=



000
FTUS46 KPDT 181100
TAFRDM
TAF
KRDM 181139Z 1812/1912 16005KT P6SM BKN060 OVC080
     FM181600 20005KT P6SM SCT070 BKN080
     FM182100 32005KT P6SM SCT080
     FM190300 VRB04KT P6SM SCT080
     FM190600 15005KT P6SM SKC=



000
FTUS46 KPDT 181100
TAFPDT
TAF
KPDT 181139Z 1812/1912 VRB05KT P6SM BKN070 OVC090
     FM181800 22010KT P6SM SCT070 BKN100
     FM182100 VRB05KT P6SM SCT100
     FM190300 09005KT P6SM FEW090=



000
FTUS46 KPDT 181100
TAFYKM
TAF
KYKM 181139Z 1812/1912 28005KT P6SM SCT100 BKN130
     FM181500 22005KT P6SM BKN120
     FM182200 18005KT P6SM SCT090
     FM190400 28006KT P6SM BKN060=



000
FTUS46 KPDT 181100
TAFDLS
TAF
KDLS 181139Z 1812/1912 30006KT P6SM BKN060 BKN080
     FM181800 30010KT P6SM SCT060 BKN100
     FM182200 VRB05KT P6SM SCT100 BKN200
     FM190400 30006KT P6SM BKN060=



000
FTUS46 KPDT 181100
TAFPSC
TAF
KPSC 181139Z 1812/1912 VRB05KT P6SM SCT080 BKN100
     FM181800 VRB05KT P6SM SCT080 BKN110
     FM182100 VRB05KT P6SM SCT110
     FM190300 VRB03KT P6SM FEW100=



000
FTUS46 KPDT 181100
TAFYKM
TAF
KYKM 181139Z 1812/1912 28005KT P6SM SCT100 BKN130
     FM181500 22005KT P6SM BKN120
     FM182200 18005KT P6SM SCT090
     FM190400 28006KT P6SM BKN060=



000
FTUS46 KPDT 181100
TAFPDT
TAF
KPDT 181139Z 1812/1912 VRB05KT P6SM BKN070 OVC090
     FM181800 22010KT P6SM SCT070 BKN100
     FM182100 VRB05KT P6SM SCT100
     FM190300 09005KT P6SM FEW090=



000
FTUS46 KPDT 180900 AAB
TAFPDT
TAF AMD
KPDT 180917Z 1809/1906 15005KT P6SM VCSH BKN070 OVC100
     FM181000 15004KT P6SM VCSH BKN060 OVC080
     FM181800 22010KT P6SM SCT060 BKN100
     FM182300 VRB05KT P6SM SCT100 BKN200=



000
FTUS46 KPDT 180800 AAA
TAFPDT
TAF AMD
KPDT 180810Z 1808/1906 18006KT P6SM SCT080 BKN100
     FM181000 18006KT P6SM BKN070 OVC090
     FM181500 VRB06KT P6SM VCSH BKN060 OVC080
     FM181800 22010KT P6SM SCT060 BKN100
     FM182300 VRB05KT P6SM SCT100 BKN200=



000
FTUS46 KPDT 180500
TAFPSC
TAF
KPSC 180520Z 1806/1906 VRB05KT P6SM VCSH BKN070 OVC100
     FM181000 VRB05KT P6SM VCSH BKN060 BKN080
     FM181800 VRB05KT P6SM SCT050 BKN100
     FM182100 VRB05KT P6SM SCT100 BKN200=



000
FTUS46 KPDT 180500
TAFRDM
TAF
KRDM 180520Z 1806/1906 19005KT P6SM -RA BKN050 OVC070
     FM180900 17005KT P6SM VCSH BKN050 OVC070
     FM181200 VRB05KT P6SM VCSH BKN040 BKN060
     FM181600 20005KT P6SM SCT050 BKN070
     FM182300 32005KT P6SM SCT070 BKN150=



000
FTUS46 KPDT 180500
TAFALW
TAF
KALW 180520Z 1806/1906 VRB05KT P6SM VCSH SCT050 BKN120
     FM181000 VRB05KT P6SM VCSH BKN050 BKN100
     FM181500 VRB05KT P6SM -RA BKN050 BKN080
     FM181800 VRB05KT P6SM SCT070 BKN100
     FM182300 VRB05KT P6SM SCT100 BKN200=



000
FTUS46 KPDT 180500
TAFYKM
TAF
KYKM 180520Z 1806/1906 VRB05KT P6SM -RA BKN045 OVC100
     FM181000 VRB06KT P6SM VCSH BKN045 BKN100
     FM181600 22005KT P6SM SCT050 BKN080
     FM182200 18005KT P6SM SCT080 BKN200=



000
FTUS46 KPDT 180500
TAFPDT
TAF
KPDT 180520Z 1806/1906 09007KT P6SM VCSH SCT050 BKN100
     FM181000 VRB06KT P6SM VCSH BKN050 BKN100
     FM181500 VRB06KT P6SM -RA BKN050 BKN100
     FM181800 22010KT P6SM SCT050 BKN100
     FM182300 VRB05KT P6SM SCT100 BKN200=



000
FTUS46 KPDT 180500
TAFDLS
TAF
KDLS 180520Z 1806/1906 VRB05KT P6SM VCSH BKN070 BKN090
     FM181000 30008KT P6SM VCSH BKN050 BKN080
     FM181800 30010KT P6SM SCT050 BKN100
     FM182200 VRB05KT P6SM SCT100 BKN200=



000
FTUS46 KPDT 172300 AAA
TAFRDM
TAF AMD
KRDM 172322Z 1723/1824 09006KT P6SM BKN060 OVC100
      TEMPO 1800/1804 -RA OVC060
     FM180400 20008KT P6SM -RA BKN050 OVC100
     FM180800 17007KT P6SM VCSH BKN050 OVC100
     FM181200 VRB06KT P6SM VCSH BKN050 BKN100
     FM181500 20008KT P6SM SCT050 BKN100=



000
FTUS46 KPDT 172300 AAA
TAFRDM
TAF AMD
KRDM 172322Z 1723/1824 09006KT P6SM BKN060 OVC100
      TEMPO 1800/1804 -RA OVC060
     FM180400 20008KT P6SM -RA BKN050 OVC100
     FM180800 17007KT P6SM VCSH BKN050 OVC100
     FM181200 VRB06KT P6SM VCSH BKN050 BKN100
     FM181500 20008KT P6SM SCT050 BKN100=



000
FTUS46 KPDT 172300
TAFALW
TAF
KALW 172320Z 1800/1824 32007KT P6SM BKN100 BKN250
     FM180200 12007KT P6SM BKN100
     FM180400 18008KT P6SM -RA BKN050 BKN100
     FM181000 VRB06KT P6SM VCSH BKN050 BKN100
     FM181800 20010KT P6SM SCT050 BKN100=



000
FTUS46 KPDT 172300
TAFPDT
TAF
KPDT 172320Z 1800/1824 32007KT P6SM BKN100 BKN250
     FM180200 15007KT P6SM BKN100
     FM180400 18008KT P6SM -RA BKN050 BKN100
     FM181000 VRB06KT P6SM VCSH BKN050 BKN100
     FM181500 VRB06KT P6SM -RA BKN050 BKN100
     FM181800 22010KT P6SM SCT050 BKN100=



000
FTUS46 KPDT 172300
TAFYKM
TAF
KYKM 172320Z 1800/1824 VRB06KT P6SM SCT050 OVC100
      TEMPO 1800/1804 -RA BKN050 BKN100
     FM180400 VRB06KT P6SM -RA BKN050 OVC100
     FM181000 VRB06KT P6SM VCSH BKN050 BKN100
     FM181500 22010KT P6SM SCT050 BKN100=



000
FTUS46 KPDT 172300
TAFALW
TAF
KALW 172320Z 1800/1824 32007KT P6SM BKN100 BKN250
     FM180200 12007KT P6SM BKN100
     FM180400 18008KT P6SM -RA BKN050 BKN100
     FM181000 VRB06KT P6SM VCSH BKN050 BKN100
     FM181800 20010KT P6SM SCT050 BKN100=



000
FTUS46 KPDT 172300
TAFYKM
TAF
KYKM 172320Z 1800/1824 VRB06KT P6SM SCT050 OVC100
      TEMPO 1800/1804 -RA BKN050 BKN100
     FM180400 VRB06KT P6SM -RA BKN050 OVC100
     FM181000 VRB06KT P6SM VCSH BKN050 BKN100
     FM181500 22010KT P6SM SCT050 BKN100=



000
FTUS46 KPDT 172300
TAFRDM
TAF
KRDM 172320Z 1800/1824 17012KT P6SM BKN100 OVC250
      TEMPO 1800/1804 -RA BKN060 BKN100
     FM180400 20008KT P6SM -RA BKN050 OVC100
     FM180800 17007KT P6SM VCSH BKN050 OVC100
     FM181200 VRB06KT P6SM VCSH BKN050 BKN100
     FM181500 20008KT P6SM SCT050 BKN100=



000
FTUS46 KPDT 172300
TAFPSC
TAF
KPSC 172320Z 1800/1824 VRB06KT P6SM BKN110
     FM180400 18008KT P6SM -RA BKN050 BKN100
     FM181000 VRB06KT P6SM VCSH BKN060 BKN110
     FM181800 22010KT P6SM SCT050 BKN100=



000
FTUS46 KPDT 172300
TAFDLS
TAF
KDLS 172320Z 1800/1824 VRB06KT P6SM BKN070
      TEMPO 1800/1804 -RA BKN050 BKN100
     FM180400 VRB06KT P6SM -RA BKN050 BKN100
     FM181000 30008KT P6SM VCSH BKN050 BKN100
     FM181800 30010KT P6SM SCT050 BKN100=



000
FTUS46 KPDT 172300
TAFPSC
TAF
KPSC 172320Z 1800/1824 VRB06KT P6SM BKN110
     FM180400 18008KT P6SM -RA BKN050 BKN100
     FM181000 VRB06KT P6SM VCSH BKN060 BKN110
     FM181800 22010KT P6SM SCT050 BKN100=



000
FTUS46 KPDT 172300
TAFDLS
TAF
KDLS 172320Z 1800/1824 VRB06KT P6SM BKN070
      TEMPO 1800/1804 -RA BKN050 BKN100
     FM180400 VRB06KT P6SM -RA BKN050 BKN100
     FM181000 30008KT P6SM VCSH BKN050 BKN100
     FM181800 30010KT P6SM SCT050 BKN100=



000
FTUS46 KPDT 172300
TAFPDT
TAF
KPDT 172320Z 1800/1824 32007KT P6SM BKN100 BKN250
     FM180200 15007KT P6SM BKN100
     FM180400 18008KT P6SM -RA BKN050 BKN100
     FM181000 VRB06KT P6SM VCSH BKN050 BKN100
     FM181500 VRB06KT P6SM -RA BKN050 BKN100
     FM181800 22010KT P6SM SCT050 BKN100=



000
FTUS46 KPDT 172300
TAFRDM
TAF
KRDM 172320Z 1800/1824 17012KT P6SM BKN100 OVC250
      TEMPO 1800/1804 -RA BKN060 BKN100
     FM180400 20008KT P6SM -RA BKN050 OVC100
     FM180800 17007KT P6SM VCSH BKN050 OVC100
     FM181200 VRB06KT P6SM VCSH BKN050 BKN100
     FM181500 20008KT P6SM SCT050 BKN100=



    US Dept of Commerce
    National Oceanic and Atmospheric Administration
    National Weather Service
    1325 East West Highway
    Silver Spring, MD 20910
    Page Author: NWS Internet Services Team
Disclaimer
Information Quality
Credits
Glossary
Privacy Policy
Freedom of Information Act (FOIA)
About Us
Career Opportunities